sensor_id;sensor_type;location;lat;lon;timestamp;temperature;humidity
19281;DHT22;9774;52.034;5.342;2023-08-31T00:01:19;16.00;62.30
19281;DHT22;9774;52.034;5.342;2023-08-31T00:03:46;16.00;62.40
19281;DHT22;9774;52.034;5.342;2023-08-31T00:06:13;16.00;62.50
19281;DHT22;9774;52.034;5.342;2023-08-31T00:08:40;16.00;62.50
19281;DHT22;9774;52.034;5.342;2023-08-31T00:11:08;16.00;62.60
19281;DHT22;9774;52.034;5.342;2023-08-31T00:13:37;16.00;62.60
19281;DHT22;9774;52.034;5.342;2023-08-31T00:16:03;15.90;62.50
19281;DHT22;9774;52.034;5.342;2023-08-31T00:18:31;15.90;62.50
19281;DHT22;9774;52.034;5.342;2023-08-31T00:20:58;15.90;62.50
19281;DHT22;9774;52.034;5.342;2023-08-31T00:23:25;15.90;62.50
19281;DHT22;9774;52.034;5.342;2023-08-31T00:25:52;15.90;62.60
19281;DHT22;9774;52.034;5.342;2023-08-31T00:28:19;15.80;62.60
19281;DHT22;9774;52.034;5.342;2023-08-31T00:30:49;15.80;62.50
19281;DHT22;9774;52.034;5.342;2023-08-31T00:33:18;15.80;62.60
19281;DHT22;9774;52.034;5.342;2023-08-31T00:35:45;15.80;62.60
19281;DHT22;9774;52.034;5.342;2023-08-31T00:38:12;15.70;62.70
19281;DHT22;9774;52.034;5.342;2023-08-31T00:40:40;15.70;62.80
19281;DHT22;9774;52.034;5.342;2023-08-31T00:43:10;15.70;62.80
19281;DHT22;9774;52.034;5.342;2023-08-31T00:45:38;15.70;62.80
19281;DHT22;9774;52.034;5.342;2023-08-31T00:48:07;15.70;62.90
19281;DHT22;9774;52.034;5.342;2023-08-31T00:50:35;15.70;63.00
19281;DHT22;9774;52.034;5.342;2023-08-31T00:53:03;15.70;63.10
19281;DHT22;9774;52.034;5.342;2023-08-31T00:55:31;15.70;63.20
19281;DHT22;9774;52.034;5.342;2023-08-31T00:57:59;15.70;63.30
19281;DHT22;9774;52.034;5.342;2023-08-31T01:00:33;15.70;63.30
19281;DHT22;9774;52.034;5.342;2023-08-31T01:03:28;15.70;63.50
19281;DHT22;9774;52.034;5.342;2023-08-31T01:06:07;15.70;63.40
19281;DHT22;9774;52.034;5.342;2023-08-31T01:08:46;15.70;63.30
19281;DHT22;9774;52.034;5.342;2023-08-31T01:11:27;15.70;63.40
19281;DHT22;9774;52.034;5.342;2023-08-31T01:14:02;15.70;63.50
19281;DHT22;9774;52.034;5.342;2023-08-31T01:16:39;15.70;63.60
19281;DHT22;9774;52.034;5.342;2023-08-31T01:19:21;15.70;63.70
19281;DHT22;9774;52.034;5.342;2023-08-31T01:22:00;15.70;64.10
19281;DHT22;9774;52.034;5.342;2023-08-31T01:24:32;15.80;64.10
19281;DHT22;9774;52.034;5.342;2023-08-31T01:26:59;15.80;64.20
19281;DHT22;9774;52.034;5.342;2023-08-31T01:29:26;15.80;64.30
19281;DHT22;9774;52.034;5.342;2023-08-31T01:31:55;15.80;64.40
19281;DHT22;9774;52.034;5.342;2023-08-31T01:34:22;15.90;64.50
19281;DHT22;9774;52.034;5.342;2023-08-31T01:36:56;15.90;64.60
19281;DHT22;9774;52.034;5.342;2023-08-31T01:39:32;15.90;64.70
19281;DHT22;9774;52.034;5.342;2023-08-31T01:42:05;16.00;64.70
19281;DHT22;9774;52.034;5.342;2023-08-31T01:44:34;16.00;64.80
19281;DHT22;9774;52.034;5.342;2023-08-31T01:47:05;16.00;65.00
19281;DHT22;9774;52.034;5.342;2023-08-31T01:49:36;16.10;65.30
19281;DHT22;9774;52.034;5.342;2023-08-31T01:52:04;16.10;65.50
19281;DHT22;9774;52.034;5.342;2023-08-31T01:54:34;16.10;65.50
19281;DHT22;9774;52.034;5.342;2023-08-31T01:57:03;16.10;65.60
19281;DHT22;9774;52.034;5.342;2023-08-31T01:59:31;16.20;65.60
19281;DHT22;9774;52.034;5.342;2023-08-31T02:01:58;16.20;65.80
19281;DHT22;9774;52.034;5.342;2023-08-31T02:04:25;16.20;65.90
19281;DHT22;9774;52.034;5.342;2023-08-31T02:06:53;16.30;65.90
19281;DHT22;9774;52.034;5.342;2023-08-31T02:09:20;16.30;65.80
19281;DHT22;9774;52.034;5.342;2023-08-31T02:11:48;16.30;65.90
19281;DHT22;9774;52.034;5.342;2023-08-31T02:14:15;16.40;65.90
19281;DHT22;9774;52.034;5.342;2023-08-31T02:16:42;16.40;65.90
19281;DHT22;9774;52.034;5.342;2023-08-31T02:19:10;16.40;65.80
19281;DHT22;9774;52.034;5.342;2023-08-31T02:21:37;16.50;65.90
19281;DHT22;9774;52.034;5.342;2023-08-31T02:24:05;16.50;65.80
19281;DHT22;9774;52.034;5.342;2023-08-31T02:26:34;16.50;65.90
19281;DHT22;9774;52.034;5.342;2023-08-31T02:29:05;16.50;65.90
19281;DHT22;9774;52.034;5.342;2023-08-31T02:31:35;16.60;66.00
19281;DHT22;9774;52.034;5.342;2023-08-31T02:34:03;16.60;66.00
19281;DHT22;9774;52.034;5.342;2023-08-31T02:36:30;16.60;65.90
19281;DHT22;9774;52.034;5.342;2023-08-31T02:38:57;16.70;66.00
19281;DHT22;9774;52.034;5.342;2023-08-31T02:41:23;16.60;65.90
19281;DHT22;9774;52.034;5.342;2023-08-31T02:43:51;16.70;66.00
19281;DHT22;9774;52.034;5.342;2023-08-31T02:46:19;16.70;66.00
19281;DHT22;9774;52.034;5.342;2023-08-31T02:48:46;16.70;65.90
19281;DHT22;9774;52.034;5.342;2023-08-31T02:51:13;16.70;65.90
19281;DHT22;9774;52.034;5.342;2023-08-31T02:53:40;16.80;65.90
19281;DHT22;9774;52.034;5.342;2023-08-31T02:56:07;16.70;65.90
19281;DHT22;9774;52.034;5.342;2023-08-31T02:58:34;16.80;65.90
19281;DHT22;9774;52.034;5.342;2023-08-31T03:01:08;16.80;65.90
19281;DHT22;9774;52.034;5.342;2023-08-31T03:03:39;16.80;65.90
19281;DHT22;9774;52.034;5.342;2023-08-31T03:06:06;16.90;65.90
19281;DHT22;9774;52.034;5.342;2023-08-31T03:08:34;16.90;65.90
19281;DHT22;9774;52.034;5.342;2023-08-31T03:11:02;16.90;65.90
19281;DHT22;9774;52.034;5.342;2023-08-31T03:13:30;16.90;65.90
19281;DHT22;9774;52.034;5.342;2023-08-31T03:15:58;16.90;65.90
19281;DHT22;9774;52.034;5.342;2023-08-31T03:18:26;17.00;65.90
19281;DHT22;9774;52.034;5.342;2023-08-31T03:20:54;17.00;65.90
19281;DHT22;9774;52.034;5.342;2023-08-31T03:23:24;17.00;65.90
19281;DHT22;9774;52.034;5.342;2023-08-31T03:25:51;17.00;65.90
19281;DHT22;9774;52.034;5.342;2023-08-31T03:28:19;17.00;65.80
19281;DHT22;9774;52.034;5.342;2023-08-31T03:30:54;17.00;65.80
19281;DHT22;9774;52.034;5.342;2023-08-31T03:33:22;17.00;65.90
19281;DHT22;9774;52.034;5.342;2023-08-31T03:35:49;17.10;65.80
19281;DHT22;9774;52.034;5.342;2023-08-31T03:38:17;17.10;65.80
19281;DHT22;9774;52.034;5.342;2023-08-31T03:40:53;17.10;65.80
19281;DHT22;9774;52.034;5.342;2023-08-31T03:43:20;17.10;65.90
19281;DHT22;9774;52.034;5.342;2023-08-31T03:45:48;17.10;65.70
19281;DHT22;9774;52.034;5.342;2023-08-31T03:48:15;17.10;65.70
19281;DHT22;9774;52.034;5.342;2023-08-31T03:50:42;17.10;65.70
19281;DHT22;9774;52.034;5.342;2023-08-31T03:53:09;17.10;65.70
19281;DHT22;9774;52.034;5.342;2023-08-31T03:55:37;17.10;65.70
19281;DHT22;9774;52.034;5.342;2023-08-31T03:58:04;17.10;65.80
19281;DHT22;9774;52.034;5.342;2023-08-31T04:00:32;17.20;65.80
19281;DHT22;9774;52.034;5.342;2023-08-31T04:02:58;17.20;65.80
19281;DHT22;9774;52.034;5.342;2023-08-31T04:05:25;17.20;65.90
19281;DHT22;9774;52.034;5.342;2023-08-31T04:07:52;17.20;65.90
19281;DHT22;9774;52.034;5.342;2023-08-31T04:10:24;17.20;65.90
19281;DHT22;9774;52.034;5.342;2023-08-31T04:12:53;17.20;66.10
19281;DHT22;9774;52.034;5.342;2023-08-31T04:15:20;17.20;66.00
19281;DHT22;9774;52.034;5.342;2023-08-31T04:17:47;17.30;66.10
19281;DHT22;9774;52.034;5.342;2023-08-31T04:20:15;17.30;66.10
19281;DHT22;9774;52.034;5.342;2023-08-31T04:22:42;17.30;66.20
19281;DHT22;9774;52.034;5.342;2023-08-31T04:25:09;17.30;66.20
19281;DHT22;9774;52.034;5.342;2023-08-31T04:27:36;17.30;66.20
19281;DHT22;9774;52.034;5.342;2023-08-31T04:30:07;17.40;66.30
19281;DHT22;9774;52.034;5.342;2023-08-31T04:32:34;17.40;66.40
19281;DHT22;9774;52.034;5.342;2023-08-31T04:35:02;17.40;66.40
19281;DHT22;9774;52.034;5.342;2023-08-31T04:37:31;17.50;66.50
19281;DHT22;9774;52.034;5.342;2023-08-31T04:39:58;17.40;66.50
19281;DHT22;9774;52.034;5.342;2023-08-31T04:42:25;17.50;66.50
19281;DHT22;9774;52.034;5.342;2023-08-31T04:44:52;17.50;66.60
19281;DHT22;9774;52.034;5.342;2023-08-31T04:47:20;17.50;66.60
19281;DHT22;9774;52.034;5.342;2023-08-31T04:49:47;17.50;66.70
19281;DHT22;9774;52.034;5.342;2023-08-31T04:52:14;17.50;66.60
19281;DHT22;9774;52.034;5.342;2023-08-31T04:54:41;17.50;66.60
19281;DHT22;9774;52.034;5.342;2023-08-31T04:57:08;17.60;66.70
19281;DHT22;9774;52.034;5.342;2023-08-31T04:59:35;17.60;66.70
19281;DHT22;9774;52.034;5.342;2023-08-31T05:02:02;17.60;66.80
19281;DHT22;9774;52.034;5.342;2023-08-31T05:04:31;17.50;66.70
19281;DHT22;9774;52.034;5.342;2023-08-31T05:06:59;17.60;66.80
19281;DHT22;9774;52.034;5.342;2023-08-31T05:09:26;17.60;66.80
19281;DHT22;9774;52.034;5.342;2023-08-31T05:11:58;17.60;66.80
19281;DHT22;9774;52.034;5.342;2023-08-31T05:14:25;17.60;66.80
19281;DHT22;9774;52.034;5.342;2023-08-31T05:16:52;17.60;66.70
19281;DHT22;9774;52.034;5.342;2023-08-31T05:19:19;17.60;66.70
19281;DHT22;9774;52.034;5.342;2023-08-31T05:21:47;17.60;66.80
19281;DHT22;9774;52.034;5.342;2023-08-31T05:24:14;17.60;66.80
19281;DHT22;9774;52.034;5.342;2023-08-31T05:26:41;17.60;66.80
19281;DHT22;9774;52.034;5.342;2023-08-31T05:29:08;17.60;66.90
19281;DHT22;9774;52.034;5.342;2023-08-31T05:31:35;17.60;66.90
19281;DHT22;9774;52.034;5.342;2023-08-31T05:34:03;17.60;67.00
19281;DHT22;9774;52.034;5.342;2023-08-31T05:36:30;17.60;67.00
19281;DHT22;9774;52.034;5.342;2023-08-31T05:38:58;17.60;67.00
19281;DHT22;9774;52.034;5.342;2023-08-31T05:41:25;17.60;67.10
19281;DHT22;9774;52.034;5.342;2023-08-31T05:43:52;17.60;67.00
19281;DHT22;9774;52.034;5.342;2023-08-31T05:46:19;17.60;67.10
19281;DHT22;9774;52.034;5.342;2023-08-31T05:48:49;17.60;67.10
19281;DHT22;9774;52.034;5.342;2023-08-31T05:51:18;17.60;67.10
19281;DHT22;9774;52.034;5.342;2023-08-31T05:53:45;17.60;67.20
19281;DHT22;9774;52.034;5.342;2023-08-31T05:56:14;17.60;67.20
19281;DHT22;9774;52.034;5.342;2023-08-31T05:58:41;17.70;67.40
19281;DHT22;9774;52.034;5.342;2023-08-31T06:01:08;17.70;67.40
19281;DHT22;9774;52.034;5.342;2023-08-31T06:03:35;17.70;67.60
19281;DHT22;9774;52.034;5.342;2023-08-31T06:06:02;17.70;67.70
19281;DHT22;9774;52.034;5.342;2023-08-31T06:08:29;17.80;67.60
19281;DHT22;9774;52.034;5.342;2023-08-31T06:10:56;17.80;67.50
19281;DHT22;9774;52.034;5.342;2023-08-31T06:13:24;17.80;67.40
19281;DHT22;9774;52.034;5.342;2023-08-31T06:15:51;17.80;67.40
19281;DHT22;9774;52.034;5.342;2023-08-31T06:18:20;17.80;67.30
19281;DHT22;9774;52.034;5.342;2023-08-31T06:20:49;17.90;67.40
19281;DHT22;9774;52.034;5.342;2023-08-31T06:23:16;17.90;67.30
19281;DHT22;9774;52.034;5.342;2023-08-31T06:25:43;17.90;67.30
19281;DHT22;9774;52.034;5.342;2023-08-31T06:28:11;17.90;67.40
19281;DHT22;9774;52.034;5.342;2023-08-31T06:30:41;17.90;67.30
19281;DHT22;9774;52.034;5.342;2023-08-31T06:33:12;17.90;67.30
19281;DHT22;9774;52.034;5.342;2023-08-31T06:35:38;17.90;67.20
19281;DHT22;9774;52.034;5.342;2023-08-31T06:38:07;18.00;67.20
19281;DHT22;9774;52.034;5.342;2023-08-31T06:40:34;17.90;67.20
19281;DHT22;9774;52.034;5.342;2023-08-31T06:43:00;17.90;67.20
19281;DHT22;9774;52.034;5.342;2023-08-31T06:45:29;18.00;67.30
19281;DHT22;9774;52.034;5.342;2023-08-31T06:47:57;18.00;67.20
19281;DHT22;9774;52.034;5.342;2023-08-31T06:50:25;18.00;67.30
19281;DHT22;9774;52.034;5.342;2023-08-31T06:52:52;18.00;67.30
19281;DHT22;9774;52.034;5.342;2023-08-31T06:55:19;18.00;67.20
19281;DHT22;9774;52.034;5.342;2023-08-31T06:57:46;18.00;67.20
19281;DHT22;9774;52.034;5.342;2023-08-31T07:00:13;18.00;67.30
19281;DHT22;9774;52.034;5.342;2023-08-31T07:02:41;18.00;67.40
19281;DHT22;9774;52.034;5.342;2023-08-31T07:05:10;18.10;67.50
19281;DHT22;9774;52.034;5.342;2023-08-31T07:07:37;18.10;67.60
19281;DHT22;9774;52.034;5.342;2023-08-31T07:10:05;18.10;67.60
19281;DHT22;9774;52.034;5.342;2023-08-31T07:12:33;18.10;67.70
19281;DHT22;9774;52.034;5.342;2023-08-31T07:15:00;18.10;67.60
19281;DHT22;9774;52.034;5.342;2023-08-31T07:17:27;18.10;67.50
19281;DHT22;9774;52.034;5.342;2023-08-31T07:19:54;18.20;67.70
19281;DHT22;9774;52.034;5.342;2023-08-31T07:22:23;18.10;67.70
19281;DHT22;9774;52.034;5.342;2023-08-31T07:24:50;18.10;67.60
19281;DHT22;9774;52.034;5.342;2023-08-31T07:27:16;18.20;68.30
19281;DHT22;9774;52.034;5.342;2023-08-31T07:29:43;18.20;67.70
19281;DHT22;9774;52.034;5.342;2023-08-31T07:32:10;18.20;67.70
19281;DHT22;9774;52.034;5.342;2023-08-31T07:34:38;18.20;67.80
19281;DHT22;9774;52.034;5.342;2023-08-31T07:37:04;18.20;67.70
19281;DHT22;9774;52.034;5.342;2023-08-31T07:39:33;18.30;67.90
19281;DHT22;9774;52.034;5.342;2023-08-31T07:42:00;18.30;67.90
19281;DHT22;9774;52.034;5.342;2023-08-31T07:44:27;18.30;67.90
19281;DHT22;9774;52.034;5.342;2023-08-31T07:46:54;18.30;67.90
19281;DHT22;9774;52.034;5.342;2023-08-31T07:49:21;18.30;67.90
19281;DHT22;9774;52.034;5.342;2023-08-31T07:51:48;18.40;68.10
19281;DHT22;9774;52.034;5.342;2023-08-31T07:54:19;18.40;68.30
19281;DHT22;9774;52.034;5.342;2023-08-31T07:56:48;18.40;68.50
19281;DHT22;9774;52.034;5.342;2023-08-31T07:59:16;18.50;68.70
19281;DHT22;9774;52.034;5.342;2023-08-31T08:01:43;18.60;68.80
19281;DHT22;9774;52.034;5.342;2023-08-31T08:04:10;18.60;68.80
19281;DHT22;9774;52.034;5.342;2023-08-31T08:06:37;18.70;68.70
19281;DHT22;9774;52.034;5.342;2023-08-31T08:09:04;18.70;68.60
19281;DHT22;9774;52.034;5.342;2023-08-31T08:11:32;18.80;68.50
19281;DHT22;9774;52.034;5.342;2023-08-31T08:14:02;18.80;68.40
19281;DHT22;9774;52.034;5.342;2023-08-31T08:16:29;18.90;68.50
19281;DHT22;9774;52.034;5.342;2023-08-31T08:18:56;19.00;68.70
19281;DHT22;9774;52.034;5.342;2023-08-31T08:21:23;19.00;68.90
19281;DHT22;9774;52.034;5.342;2023-08-31T08:23:50;19.10;69.00
19281;DHT22;9774;52.034;5.342;2023-08-31T08:26:18;19.20;69.10
19281;DHT22;9774;52.034;5.342;2023-08-31T08:28:45;19.20;69.00
19281;DHT22;9774;52.034;5.342;2023-08-31T08:31:13;19.30;69.10
19281;DHT22;9774;52.034;5.342;2023-08-31T08:33:40;19.40;69.20
19281;DHT22;9774;52.034;5.342;2023-08-31T08:36:07;19.50;69.20
19281;DHT22;9774;52.034;5.342;2023-08-31T08:38:34;19.70;69.30
19281;DHT22;9774;52.034;5.342;2023-08-31T08:41:04;19.70;69.30
19281;DHT22;9774;52.034;5.342;2023-08-31T08:43:33;19.90;69.00
19281;DHT22;9774;52.034;5.342;2023-08-31T08:46:04;19.90;68.70
19281;DHT22;9774;52.034;5.342;2023-08-31T08:48:35;20.10;69.00
19281;DHT22;9774;52.034;5.342;2023-08-31T08:51:04;20.20;68.90
19281;DHT22;9774;52.034;5.342;2023-08-31T08:53:33;20.30;68.70
19281;DHT22;9774;52.034;5.342;2023-08-31T08:56:00;20.40;68.60
19281;DHT22;9774;52.034;5.342;2023-08-31T08:58:27;20.50;68.50
19281;DHT22;9774;52.034;5.342;2023-08-31T09:00:55;20.60;68.20
19281;DHT22;9774;52.034;5.342;2023-08-31T09:03:23;20.70;67.80
19281;DHT22;9774;52.034;5.342;2023-08-31T09:05:51;20.90;67.70
19281;DHT22;9774;52.034;5.342;2023-08-31T09:08:25;21.00;67.60
19281;DHT22;9774;52.034;5.342;2023-08-31T09:10:55;21.10;67.00
19281;DHT22;9774;52.034;5.342;2023-08-31T09:13:26;21.20;66.70
19281;DHT22;9774;52.034;5.342;2023-08-31T09:15:54;21.30;66.30
19281;DHT22;9774;52.034;5.342;2023-08-31T09:18:27;21.30;66.00
19281;DHT22;9774;52.034;5.342;2023-08-31T09:20:56;21.40;65.50
19281;DHT22;9774;52.034;5.342;2023-08-31T09:23:24;21.40;66.10
19281;DHT22;9774;52.034;5.342;2023-08-31T09:25:52;21.40;65.10
19281;DHT22;9774;52.034;5.342;2023-08-31T09:28:22;21.40;65.00
19281;DHT22;9774;52.034;5.342;2023-08-31T09:30:52;21.40;65.10
19281;DHT22;9774;52.034;5.342;2023-08-31T09:33:20;21.50;65.30
19281;DHT22;9774;52.034;5.342;2023-08-31T09:35:51;21.60;65.40
19281;DHT22;9774;52.034;5.342;2023-08-31T09:38:20;21.70;65.40
19281;DHT22;9774;52.034;5.342;2023-08-31T09:40:47;21.80;65.20
19281;DHT22;9774;52.034;5.342;2023-08-31T09:43:19;21.90;64.70
19281;DHT22;9774;52.034;5.342;2023-08-31T09:45:47;22.00;64.00
19281;DHT22;9774;52.034;5.342;2023-08-31T09:48:18;22.10;63.80
19281;DHT22;9774;52.034;5.342;2023-08-31T09:50:46;22.10;62.90
19281;DHT22;9774;52.034;5.342;2023-08-31T09:53:16;22.20;63.30
19281;DHT22;9774;52.034;5.342;2023-08-31T09:55:46;22.30;62.20
19281;DHT22;9774;52.034;5.342;2023-08-31T09:58:17;22.30;61.90
19281;DHT22;9774;52.034;5.342;2023-08-31T10:00:46;22.40;61.60
19281;DHT22;9774;52.034;5.342;2023-08-31T10:03:16;22.50;61.50
19281;DHT22;9774;52.034;5.342;2023-08-31T10:05:43;22.50;61.20
19281;DHT22;9774;52.034;5.342;2023-08-31T10:08:12;22.60;60.90
19281;DHT22;9774;52.034;5.342;2023-08-31T10:10:39;22.60;60.90
19281;DHT22;9774;52.034;5.342;2023-08-31T10:13:09;22.70;61.00
19281;DHT22;9774;52.034;5.342;2023-08-31T10:15:37;22.80;60.60
19281;DHT22;9774;52.034;5.342;2023-08-31T10:18:06;22.90;60.20
19281;DHT22;9774;52.034;5.342;2023-08-31T10:20:34;23.00;59.60
19281;DHT22;9774;52.034;5.342;2023-08-31T10:23:03;23.10;59.30
19281;DHT22;9774;52.034;5.342;2023-08-31T10:26:04;23.10;59.10
19281;DHT22;9774;52.034;5.342;2023-08-31T10:28:40;23.20;58.10
19281;DHT22;9774;52.034;5.342;2023-08-31T10:31:10;23.20;58.40
19281;DHT22;9774;52.034;5.342;2023-08-31T10:33:43;23.30;58.70
19281;DHT22;9774;52.034;5.342;2023-08-31T10:36:13;23.40;58.60
19281;DHT22;9774;52.034;5.342;2023-08-31T10:38:44;23.40;58.00
19281;DHT22;9774;52.034;5.342;2023-08-31T10:41:20;23.40;58.00
19281;DHT22;9774;52.034;5.342;2023-08-31T10:43:51;23.40;57.10
19281;DHT22;9774;52.034;5.342;2023-08-31T10:46:31;23.50;57.30
19281;DHT22;9774;52.034;5.342;2023-08-31T10:49:00;23.50;56.80
19281;DHT22;9774;52.034;5.342;2023-08-31T10:51:29;23.60;57.20
19281;DHT22;9774;52.034;5.342;2023-08-31T10:54:08;23.60;56.50
19281;DHT22;9774;52.034;5.342;2023-08-31T10:56:52;23.60;55.90
19281;DHT22;9774;52.034;5.342;2023-08-31T10:59:45;23.70;55.70
19281;DHT22;9774;52.034;5.342;2023-08-31T11:02:30;23.80;55.80
19281;DHT22;9774;52.034;5.342;2023-08-31T11:05:00;23.80;55.50
19281;DHT22;9774;52.034;5.342;2023-08-31T11:07:35;23.90;56.20
19281;DHT22;9774;52.034;5.342;2023-08-31T11:10:11;23.90;55.90
19281;DHT22;9774;52.034;5.342;2023-08-31T11:12:42;24.00;55.40
19281;DHT22;9774;52.034;5.342;2023-08-31T11:15:13;24.10;55.50
19281;DHT22;9774;52.034;5.342;2023-08-31T11:17:40;24.10;55.00
19281;DHT22;9774;52.034;5.342;2023-08-31T11:20:09;24.20;55.10
19281;DHT22;9774;52.034;5.342;2023-08-31T11:22:41;24.20;54.70
19281;DHT22;9774;52.034;5.342;2023-08-31T11:25:12;24.30;53.20
19281;DHT22;9774;52.034;5.342;2023-08-31T11:27:40;24.20;53.70
19281;DHT22;9774;52.034;5.342;2023-08-31T11:30:15;24.30;53.40
19281;DHT22;9774;52.034;5.342;2023-08-31T11:32:46;24.20;51.90
19281;DHT22;9774;52.034;5.342;2023-08-31T11:35:14;24.30;52.60
19281;DHT22;9774;52.034;5.342;2023-08-31T11:37:43;24.20;52.70
19281;DHT22;9774;52.034;5.342;2023-08-31T11:40:11;24.20;52.70
19281;DHT22;9774;52.034;5.342;2023-08-31T11:42:41;24.20;52.60
19281;DHT22;9774;52.034;5.342;2023-08-31T11:45:09;24.30;52.60
19281;DHT22;9774;52.034;5.342;2023-08-31T11:47:41;24.30;52.70
19281;DHT22;9774;52.034;5.342;2023-08-31T11:50:11;24.30;52.70
19281;DHT22;9774;52.034;5.342;2023-08-31T11:52:39;24.30;52.60
19281;DHT22;9774;52.034;5.342;2023-08-31T11:55:10;24.30;52.40
19281;DHT22;9774;52.034;5.342;2023-08-31T11:57:38;24.30;52.10
19281;DHT22;9774;52.034;5.342;2023-08-31T12:00:06;24.40;52.40
19281;DHT22;9774;52.034;5.342;2023-08-31T12:02:36;24.40;52.30
19281;DHT22;9774;52.034;5.342;2023-08-31T12:05:05;24.50;52.40
19281;DHT22;9774;52.034;5.342;2023-08-31T12:07:39;24.50;51.50
19281;DHT22;9774;52.034;5.342;2023-08-31T12:10:08;24.50;51.30
19281;DHT22;9774;52.034;5.342;2023-08-31T12:12:35;24.50;51.50
19281;DHT22;9774;52.034;5.342;2023-08-31T12:15:05;24.50;51.30
19281;DHT22;9774;52.034;5.342;2023-08-31T12:17:36;24.60;51.30
19281;DHT22;9774;52.034;5.342;2023-08-31T12:20:07;24.60;50.80
19281;DHT22;9774;52.034;5.342;2023-08-31T12:22:35;24.50;50.90
19281;DHT22;9774;52.034;5.342;2023-08-31T12:25:03;24.50;50.00
19281;DHT22;9774;52.034;5.342;2023-08-31T12:27:31;24.50;50.70
19281;DHT22;9774;52.034;5.342;2023-08-31T12:29:58;24.50;50.90
19281;DHT22;9774;52.034;5.342;2023-08-31T12:32:25;24.50;50.60
19281;DHT22;9774;52.034;5.342;2023-08-31T12:34:52;24.60;51.10
19281;DHT22;9774;52.034;5.342;2023-08-31T12:37:22;24.60;51.10
19281;DHT22;9774;52.034;5.342;2023-08-31T12:39:49;24.60;50.20
19281;DHT22;9774;52.034;5.342;2023-08-31T12:42:17;24.70;50.70
19281;DHT22;9774;52.034;5.342;2023-08-31T12:44:43;24.70;50.60
19281;DHT22;9774;52.034;5.342;2023-08-31T12:47:10;24.80;50.10
19281;DHT22;9774;52.034;5.342;2023-08-31T12:49:37;24.70;50.60
19281;DHT22;9774;52.034;5.342;2023-08-31T12:52:05;24.80;50.50
19281;DHT22;9774;52.034;5.342;2023-08-31T12:54:34;24.90;49.60
19281;DHT22;9774;52.034;5.342;2023-08-31T12:57:01;24.90;50.10
19281;DHT22;9774;52.034;5.342;2023-08-31T12:59:28;24.90;50.10
19281;DHT22;9774;52.034;5.342;2023-08-31T13:01:55;24.90;49.90
19281;DHT22;9774;52.034;5.342;2023-08-31T13:04:23;25.00;49.80
19281;DHT22;9774;52.034;5.342;2023-08-31T13:06:50;25.00;49.80
19281;DHT22;9774;52.034;5.342;2023-08-31T13:09:17;25.00;50.00
19281;DHT22;9774;52.034;5.342;2023-08-31T13:11:45;25.00;50.00
19281;DHT22;9774;52.034;5.342;2023-08-31T13:14:12;25.00;49.80
19281;DHT22;9774;52.034;5.342;2023-08-31T13:16:39;25.00;49.90
19281;DHT22;9774;52.034;5.342;2023-08-31T13:19:06;25.00;49.60
19281;DHT22;9774;52.034;5.342;2023-08-31T13:21:35;25.00;49.50
19281;DHT22;9774;52.034;5.342;2023-08-31T13:24:03;25.00;49.30
19281;DHT22;9774;52.034;5.342;2023-08-31T13:26:30;25.00;49.20
19281;DHT22;9774;52.034;5.342;2023-08-31T13:28:58;25.00;49.10
19281;DHT22;9774;52.034;5.342;2023-08-31T13:31:25;25.00;48.90
19281;DHT22;9774;52.034;5.342;2023-08-31T13:33:54;25.00;48.90
19281;DHT22;9774;52.034;5.342;2023-08-31T13:36:21;25.10;49.10
19281;DHT22;9774;52.034;5.342;2023-08-31T13:38:48;25.10;48.80
19281;DHT22;9774;52.034;5.342;2023-08-31T13:41:15;25.10;48.90
19281;DHT22;9774;52.034;5.342;2023-08-31T13:43:43;25.20;49.10
19281;DHT22;9774;52.034;5.342;2023-08-31T13:46:11;25.20;48.80
19281;DHT22;9774;52.034;5.342;2023-08-31T13:48:38;25.30;49.30
19281;DHT22;9774;52.034;5.342;2023-08-31T13:51:05;25.40;49.30
19281;DHT22;9774;52.034;5.342;2023-08-31T13:53:32;25.50;49.30
19281;DHT22;9774;52.034;5.342;2023-08-31T13:56:04;25.60;49.20
19281;DHT22;9774;52.034;5.342;2023-08-31T13:58:31;25.70;49.10
19281;DHT22;9774;52.034;5.342;2023-08-31T14:01:00;25.80;48.50
19281;DHT22;9774;52.034;5.342;2023-08-31T14:03:30;25.90;48.50
19281;DHT22;9774;52.034;5.342;2023-08-31T14:05:57;25.90;48.30
19281;DHT22;9774;52.034;5.342;2023-08-31T14:08:24;26.00;48.40
19281;DHT22;9774;52.034;5.342;2023-08-31T14:10:53;26.00;48.30
19281;DHT22;9774;52.034;5.342;2023-08-31T14:13:20;26.10;48.10
19281;DHT22;9774;52.034;5.342;2023-08-31T14:15:47;26.10;48.10
19281;DHT22;9774;52.034;5.342;2023-08-31T14:18:14;26.10;47.70
19281;DHT22;9774;52.034;5.342;2023-08-31T14:20:42;26.20;48.00
19281;DHT22;9774;52.034;5.342;2023-08-31T14:23:09;26.30;47.80
19281;DHT22;9774;52.034;5.342;2023-08-31T14:25:36;26.30;47.90
19281;DHT22;9774;52.034;5.342;2023-08-31T14:28:04;26.40;47.70
19281;DHT22;9774;52.034;5.342;2023-08-31T14:30:31;26.40;46.80
19281;DHT22;9774;52.034;5.342;2023-08-31T14:32:59;26.40;46.70
19281;DHT22;9774;52.034;5.342;2023-08-31T14:35:27;26.40;46.90
19281;DHT22;9774;52.034;5.342;2023-08-31T14:37:55;26.40;46.90
19281;DHT22;9774;52.034;5.342;2023-08-31T14:40:23;26.40;47.00
19281;DHT22;9774;52.034;5.342;2023-08-31T14:42:50;26.40;46.70
19281;DHT22;9774;52.034;5.342;2023-08-31T14:45:17;26.40;46.90
19281;DHT22;9774;52.034;5.342;2023-08-31T14:47:44;26.40;46.90
19281;DHT22;9774;52.034;5.342;2023-08-31T14:50:11;26.40;46.80
19281;DHT22;9774;52.034;5.342;2023-08-31T14:52:38;26.50;46.30
19281;DHT22;9774;52.034;5.342;2023-08-31T14:55:07;26.50;46.60
19281;DHT22;9774;52.034;5.342;2023-08-31T14:57:35;26.60;46.80
19281;DHT22;9774;52.034;5.342;2023-08-31T15:00:03;26.70;47.20
19281;DHT22;9774;52.034;5.342;2023-08-31T15:02:32;26.80;47.20
19281;DHT22;9774;52.034;5.342;2023-08-31T15:04:59;26.90;47.00
19281;DHT22;9774;52.034;5.342;2023-08-31T15:07:26;27.10;46.80
19281;DHT22;9774;52.034;5.342;2023-08-31T15:09:54;27.20;46.80
19281;DHT22;9774;52.034;5.342;2023-08-31T15:12:22;27.30;46.60
19281;DHT22;9774;52.034;5.342;2023-08-31T15:14:49;27.40;46.30
19281;DHT22;9774;52.034;5.342;2023-08-31T15:17:16;27.50;46.10
19281;DHT22;9774;52.034;5.342;2023-08-31T15:19:43;27.50;46.00
19281;DHT22;9774;52.034;5.342;2023-08-31T15:22:10;27.50;45.50
19281;DHT22;9774;52.034;5.342;2023-08-31T15:24:38;27.50;44.90
19281;DHT22;9774;52.034;5.342;2023-08-31T15:27:10;27.40;45.00
19281;DHT22;9774;52.034;5.342;2023-08-31T15:29:39;27.30;45.00
19281;DHT22;9774;52.034;5.342;2023-08-31T15:32:07;27.10;44.50
19281;DHT22;9774;52.034;5.342;2023-08-31T15:34:34;26.90;44.40
19281;DHT22;9774;52.034;5.342;2023-08-31T15:37:01;26.80;44.40
19281;DHT22;9774;52.034;5.342;2023-08-31T15:39:29;26.60;44.30
19281;DHT22;9774;52.034;5.342;2023-08-31T15:41:56;26.50;44.60
19281;DHT22;9774;52.034;5.342;2023-08-31T15:44:24;26.30;44.70
19281;DHT22;9774;52.034;5.342;2023-08-31T15:46:53;26.20;44.70
19281;DHT22;9774;52.034;5.342;2023-08-31T15:49:21;26.10;44.80
19281;DHT22;9774;52.034;5.342;2023-08-31T15:51:49;25.90;44.90
19281;DHT22;9774;52.034;5.342;2023-08-31T15:54:17;25.80;45.00